Terminal Aerodrome Forecast
Issued by NWS

Current Version | Previous Version | Text Only | Print | Product List | Glossary Off
Versions: 1 2 3 4 5 6 7 8 9 10 11 12 13 14 15 16 17 18

317
FTUS41 KILN 202320
TAFLUK
TAF
KLUK 202320Z 2100/2124 00000KT P6SM SCT250
     FM210400 00000KT 3SM BR SCT250
     FM210600 00000KT 2SM BR SCT250
     FM210800 00000KT 1/4SM FG VV002
     FM211100 00000KT 2SM BR SCT002 BKN250
     FM211300 18006KT P6SM BKN250=

USA.gov is the U.S. government's official web portal to all federal, state and local government web resources and services.